createdAt,value
2022-12-01T00:06:37.211Z,-10.30
2022-12-01T00:09:20.472Z,-10.20
2022-12-01T00:14:16.625Z,-10.50
2022-12-01T00:24:11.790Z,-10.40
2022-12-01T00:34:06.955Z,-9.70
2022-12-01T00:44:01.846Z,-10.10
2022-12-01T00:53:52.760Z,-10.50
2022-12-01T01:06:13.177Z,-10.10
2022-12-01T01:08:41.153Z,-10.40
2022-12-01T01:16:21.476Z,-10.50
2022-12-01T01:21:21.241Z,-10.40
2022-12-01T01:23:50.042Z,-10.40
2022-12-01T01:26:21.415Z,-10.20
2022-12-01T01:28:50.144Z,-10.50
2022-12-01T01:31:20.953Z,-10.90
2022-12-01T01:33:49.022Z,-10.30
2022-12-01T01:36:18.106Z,-10.30
2022-12-01T01:43:47.844Z,-10.20
2022-12-01T01:46:19.805Z,-10.30
2022-12-01T01:48:52.161Z,-10.40
2022-12-01T01:51:27.504Z,-10.40
2022-12-01T01:54:02.363Z,-10.70
2022-12-01T01:56:32.987Z,-10.70
2022-12-01T01:59:03.265Z,-10.90
2022-12-01T02:01:32.950Z,-10.90
2022-12-01T02:04:05.028Z,-10.80
2022-12-01T02:06:33.485Z,-10.80
2022-12-01T02:11:51.601Z,-10.90
2022-12-01T02:14:41.855Z,-10.90
2022-12-01T02:17:44.498Z,-10.90
2022-12-01T02:20:37.137Z,-11.10
2022-12-01T02:23:35.482Z,-11.00
2022-12-01T02:26:33.859Z,-11.00
2022-12-01T02:29:14.741Z,-10.90
2022-12-01T02:32:15.079Z,-11.30
2022-12-01T02:35:01.113Z,-11.00
2022-12-01T02:37:48.032Z,-10.80
2022-12-01T02:40:32.956Z,-10.90
2022-12-01T02:43:08.038Z,-11.00
2022-12-01T02:45:55.080Z,-11.00
2022-12-01T02:48:33.946Z,-10.80
2022-12-01T02:51:13.368Z,-10.90
2022-12-01T02:53:41.122Z,-10.70
2022-12-01T02:56:16.275Z,-11.00
2022-12-01T02:58:44.250Z,-10.90
2022-12-01T03:01:42.631Z,-11.00
2022-12-01T03:04:40.090Z,-11.00
2022-12-01T03:07:37.864Z,-11.00
2022-12-01T03:10:26.013Z,-10.90
2022-12-01T03:13:13.666Z,-11.00
2022-12-01T03:16:00.902Z,-11.10
2022-12-01T03:18:48.840Z,-11.00
2022-12-01T03:21:30.544Z,-11.20
2022-12-01T03:24:04.065Z,-9.50
2022-12-01T03:26:35.592Z,-11.10
2022-12-01T03:29:08.471Z,-11.20
2022-12-01T03:31:42.791Z,-11.30
2022-12-01T03:34:19.553Z,-11.10
2022-12-01T03:36:52.960Z,-11.00
2022-12-01T03:39:24.867Z,-11.00
2022-12-01T03:41:59.536Z,-11.10
2022-12-01T03:44:35.007Z,-11.00
2022-12-01T03:47:10.931Z,-11.00
2022-12-01T03:49:40.534Z,-10.90
2022-12-01T03:52:39.512Z,-10.90
2022-12-01T03:55:23.860Z,-10.90
2022-12-01T03:58:12.718Z,-10.80
2022-12-01T04:03:08.381Z,-10.00
2022-12-01T04:08:04.289Z,-10.20
2022-12-01T04:32:46.462Z,-10.30
2022-12-01T04:37:41.691Z,-10.80
2022-12-01T04:42:37.084Z,-11.00
2022-12-01T05:17:16.790Z,-10.20
2022-12-01T05:22:57.242Z,-9.80
2022-12-01T05:27:44.309Z,-9.70
2022-12-01T05:30:12.602Z,-10.20
2022-12-01T05:32:40.035Z,-10.00
2022-12-01T05:37:35.950Z,-9.90
2022-12-01T05:47:27.279Z,-10.50
2022-12-01T06:02:15.314Z,-10.40
2022-12-01T06:12:07.470Z,-10.30
2022-12-01T06:29:25.539Z,-9.40
2022-12-01T06:34:21.659Z,-9.20
2022-12-01T06:36:49.319Z,-9.80
2022-12-01T06:39:17.430Z,-9.90
2022-12-01T06:44:13.332Z,-9.00
2022-12-01T06:49:12.809Z,-9.60
2022-12-01T06:59:04.038Z,-9.70
2022-12-01T07:03:59.678Z,-9.40
2022-12-01T07:08:55.260Z,-9.60
2022-12-01T07:13:56.595Z,-9.10
2022-12-01T07:26:18.318Z,-9.00
2022-12-01T07:31:16.659Z,-9.10
2022-12-01T07:36:13.841Z,-9.20
2022-12-01T07:41:14.854Z,-9.10
2022-12-01T07:43:43.808Z,-9.00
2022-12-01T07:46:23.120Z,-9.10
2022-12-01T07:48:56.393Z,-9.10
2022-12-01T07:51:28.195Z,-9.00
2022-12-01T07:56:27.829Z,-8.90
2022-12-01T07:58:58.792Z,-8.60
2022-12-01T08:03:59.503Z,-8.40
2022-12-01T08:08:57.862Z,-8.90
2022-12-01T08:11:31.178Z,-8.80
2022-12-01T08:13:59.363Z,-8.50
2022-12-01T08:21:25.217Z,-8.60
2022-12-01T08:23:57.654Z,-8.80
2022-12-01T08:26:28.124Z,-8.70
2022-12-01T08:31:29.375Z,-8.60
2022-12-01T08:33:57.969Z,-8.60
2022-12-01T08:36:26.015Z,-8.70
2022-12-01T08:38:57.906Z,-6.00
2022-12-01T08:41:29.708Z,-9.30
2022-12-01T08:44:01.344Z,-8.00
2022-12-01T08:46:35.502Z,-7.70
2022-12-01T08:49:05.483Z,-7.90
2022-12-01T08:51:34.189Z,-8.30
2022-12-01T08:56:39.402Z,-8.20
2022-12-01T09:01:52.259Z,-8.10
2022-12-01T09:04:24.292Z,-8.20
2022-12-01T09:06:57.247Z,-8.10
2022-12-01T09:09:29.228Z,-8.10
2022-12-01T09:12:00.161Z,-8.00
2022-12-01T09:16:58.604Z,-8.10
2022-12-01T09:19:28.886Z,-8.00
2022-12-01T09:24:29.277Z,-8.00
2022-12-01T09:27:00.005Z,-7.80
2022-12-01T09:29:30.290Z,-8.10
2022-12-01T09:32:01.518Z,-7.90
2022-12-01T09:42:00.243Z,-7.60
2022-12-01T09:44:39.401Z,-7.70
2022-12-01T09:47:13.941Z,-7.80
2022-12-01T09:50:00.402Z,-7.50
2022-12-01T09:52:38.561Z,-7.60
2022-12-01T09:55:13.875Z,-7.30
2022-12-01T10:00:20.340Z,-7.40
2022-12-01T10:03:18.635Z,-7.10
2022-12-01T10:06:26.660Z,-7.10
2022-12-01T10:08:59.818Z,-6.60
2022-12-01T10:11:34.954Z,-6.40
2022-12-01T10:14:04.431Z,-6.60
2022-12-01T10:16:43.712Z,-6.60
2022-12-01T10:19:33.245Z,-6.60
2022-12-01T10:22:37.375Z,-6.00
2022-12-01T10:25:22.230Z,-4.00
2022-12-01T10:28:03.636Z,0.10
2022-12-01T10:33:16.604Z,1.60
2022-12-01T10:38:31.433Z,3.20
2022-12-01T10:41:01.350Z,2.10
2022-12-01T10:43:41.721Z,0.30
2022-12-01T10:46:27.476Z,-2.80
2022-12-01T10:48:59.683Z,-4.40
2022-12-01T10:51:28.318Z,-3.00
2022-12-01T10:54:06.846Z,-4.30
2022-12-01T10:59:16.604Z,-5.90
2022-12-01T11:01:48.538Z,-5.80
2022-12-01T11:04:45.436Z,-5.40
2022-12-01T11:07:29.376Z,-5.90
2022-12-01T11:10:16.712Z,-6.00
2022-12-01T11:12:52.428Z,-6.10
2022-12-01T11:15:25.793Z,-6.20
2022-12-01T11:18:24.017Z,-6.20
2022-12-01T11:21:10.312Z,-6.40
2022-12-01T11:23:45.311Z,-6.30
2022-12-01T11:26:22.535Z,-6.30
2022-12-01T11:28:56.829Z,-6.40
2022-12-01T11:31:44.130Z,-6.40
2022-12-01T11:34:22.068Z,-6.70
2022-12-01T11:36:57.628Z,-6.80
2022-12-01T11:39:33.191Z,-6.60
2022-12-01T11:42:05.021Z,-6.60
2022-12-01T11:44:51.036Z,-6.70
2022-12-01T11:47:25.400Z,-7.10
2022-12-01T11:49:58.345Z,-6.50
2022-12-01T11:52:32.723Z,-6.40
2022-12-01T11:55:20.928Z,-6.50
2022-12-01T11:57:54.166Z,-6.70
2022-12-01T12:00:26.247Z,-7.20
2022-12-01T12:03:08.835Z,-6.80
2022-12-01T12:06:05.881Z,-6.90
2022-12-01T12:09:06.001Z,-6.90
2022-12-01T12:12:02.087Z,-7.00
2022-12-01T12:14:53.329Z,-7.10
2022-12-01T12:17:47.220Z,-7.10
2022-12-01T12:20:44.803Z,-6.40
2022-12-01T12:23:42.329Z,-7.20
2022-12-01T12:26:21.439Z,-7.20
2022-12-01T12:29:25.211Z,-7.30
2022-12-01T12:32:24.539Z,-7.60
2022-12-01T12:35:14.055Z,-7.30
2022-12-01T12:38:02.896Z,-7.40
2022-12-01T12:40:45.769Z,-7.30
2022-12-01T12:43:39.687Z,-7.40
2022-12-01T12:46:12.673Z,-7.50
2022-12-01T12:49:22.447Z,-7.40
2022-12-01T12:52:09.078Z,-7.40
2022-12-01T12:54:46.218Z,-7.40
2022-12-01T12:57:26.819Z,-7.40
2022-12-01T13:00:01.403Z,-7.50
2022-12-01T13:02:53.021Z,-7.70
2022-12-01T13:05:38.968Z,-8.00
2022-12-01T13:08:18.760Z,-7.70
2022-12-01T13:11:00.282Z,-7.60
2022-12-01T13:13:38.318Z,-7.70
2022-12-01T13:16:12.151Z,-8.10
2022-12-01T13:19:00.100Z,-7.70
2022-12-01T13:28:55.792Z,-7.80
2022-12-01T13:34:05.329Z,-7.90
2022-12-01T13:36:49.694Z,-7.80
2022-12-01T13:39:22.666Z,-7.80
2022-12-01T13:42:02.659Z,-7.80
2022-12-01T13:44:41.403Z,-7.70
2022-12-01T13:47:32.344Z,-7.70
2022-12-01T13:50:35.489Z,-8.00
2022-12-01T13:53:18.001Z,-7.70
2022-12-01T13:56:20.708Z,-8.20
2022-12-01T13:58:50.952Z,-8.00
2022-12-01T14:01:42.503Z,-8.20
2022-12-01T14:04:27.717Z,-8.10
2022-12-01T14:07:18.653Z,-8.10
2022-12-01T14:09:46.677Z,-8.20
2022-12-01T14:12:20.701Z,-8.20
2022-12-01T14:14:55.209Z,-8.30
2022-12-01T14:17:32.400Z,-8.20
2022-12-01T14:20:19.303Z,-8.20
2022-12-01T14:22:51.309Z,-8.20
2022-12-01T14:25:27.083Z,-8.40
2022-12-01T14:28:00.446Z,-8.40
2022-12-01T14:31:03.209Z,-8.20
2022-12-01T14:33:49.105Z,-8.50
2022-12-01T14:36:42.643Z,-8.50
2022-12-01T14:39:18.045Z,-8.50
2022-12-01T14:42:03.729Z,-8.10
2022-12-01T14:44:42.736Z,-8.60
2022-12-01T14:47:21.334Z,-9.00
2022-12-01T14:50:07.286Z,-8.80
2022-12-01T14:52:38.792Z,-8.90
2022-12-01T14:55:17.317Z,-8.90
2022-12-01T14:57:49.103Z,-9.10
2022-12-01T15:00:20.758Z,-8.70
2022-12-01T15:02:59.689Z,-8.70
2022-12-01T15:05:30.314Z,-8.60
2022-12-01T15:08:33.277Z,-8.70
2022-12-01T15:10:53.766Z,-8.70
2022-12-01T15:13:30.575Z,-8.50
2022-12-01T15:16:01.549Z,-8.70
2022-12-01T15:18:31.942Z,-8.80
2022-12-01T15:21:18.096Z,-8.60
2022-12-01T15:24:03.970Z,-8.50
2022-12-01T15:26:34.660Z,-8.50
2022-12-01T15:29:19.564Z,-8.40
2022-12-01T15:31:54.956Z,-8.50
2022-12-01T15:34:38.764Z,-8.40
2022-12-01T15:37:17.582Z,-8.60
2022-12-01T15:39:51.691Z,-8.50
2022-12-01T15:42:28.872Z,-8.60
2022-12-01T15:45:06.701Z,-8.40
2022-12-01T15:47:43.892Z,-8.30
2022-12-01T15:50:46.582Z,-8.30
2022-12-01T15:53:36.557Z,-8.80
2022-12-01T15:56:09.089Z,-8.70
2022-12-01T15:58:43.722Z,-8.70
2022-12-01T16:01:32.034Z,-8.80
2022-12-01T16:04:10.743Z,-8.90
2022-12-01T16:06:42.974Z,-9.00
2022-12-01T16:09:32.456Z,-8.90
2022-12-01T16:12:14.916Z,-9.00
2022-12-01T16:14:53.865Z,-8.90
2022-12-01T16:17:29.630Z,-8.80
2022-12-01T16:20:18.051Z,-8.90
2022-12-01T16:22:53.937Z,-8.90
2022-12-01T16:25:43.808Z,-8.90
2022-12-01T16:28:31.761Z,-8.70
2022-12-01T16:33:48.908Z,-9.20
2022-12-01T16:36:28.770Z,-9.00
2022-12-01T16:39:16.843Z,-8.50
2022-12-01T16:41:54.730Z,-9.10
2022-12-01T16:44:30.097Z,-8.80
2022-12-01T16:47:12.967Z,-9.00
2022-12-01T16:49:46.919Z,-8.90
2022-12-01T16:57:34.789Z,-9.20
2022-12-01T17:02:34.976Z,-9.10
2022-12-01T17:05:02.769Z,-9.00
2022-12-01T17:09:58.708Z,-8.80
2022-12-01T17:19:53.248Z,-9.30
2022-12-01T17:32:14.993Z,-9.30
2022-12-01T17:42:13.464Z,-9.20
2022-12-01T17:49:37.857Z,-9.60
2022-12-01T18:04:25.701Z,-9.10
2022-12-01T18:09:23.086Z,-8.80
2022-12-01T18:11:51.040Z,-9.20
2022-12-01T18:16:47.082Z,-9.50
2022-12-01T18:24:13.379Z,-9.10
2022-12-01T18:26:41.721Z,-9.30
2022-12-01T18:29:16.392Z,-9.50
2022-12-01T18:34:15.074Z,-9.00
2022-12-01T18:36:42.850Z,-9.20
2022-12-01T18:39:11.924Z,-9.30
2022-12-01T18:44:10.029Z,-9.50
2022-12-01T18:49:07.596Z,-9.20
2022-12-01T18:51:38.206Z,-9.10
2022-12-01T18:54:08.005Z,-9.40
2022-12-01T18:56:36.351Z,-9.20
2022-12-01T18:59:07.494Z,-9.00
2022-12-01T19:01:41.453Z,-9.10
2022-12-01T19:04:11.077Z,-10.80
2022-12-01T19:06:43.058Z,-9.00
2022-12-01T19:09:15.446Z,-8.90
2022-12-01T19:14:17.099Z,-9.10
2022-12-01T19:16:45.778Z,-9.10
2022-12-01T19:19:18.377Z,-9.20
2022-12-01T19:24:19.355Z,-9.20
2022-12-01T19:29:21.421Z,-9.20
2022-12-01T19:31:52.074Z,-9.20
2022-12-01T19:34:26.735Z,-8.00
2022-12-01T19:39:31.090Z,-9.50
2022-12-01T19:49:32.183Z,-9.30
2022-12-01T19:54:43.061Z,-9.30
2022-12-01T19:57:13.077Z,-9.40
2022-12-01T20:02:15.161Z,-9.00
2022-12-01T20:12:28.435Z,-9.20
2022-12-01T20:17:39.297Z,-9.40
2022-12-01T20:20:10.489Z,-9.40
2022-12-01T20:22:41.914Z,-9.50
2022-12-01T20:27:42.590Z,-9.30
2022-12-01T20:30:16.864Z,-9.50
2022-12-01T20:40:19.296Z,-9.30
2022-12-01T20:45:17.320Z,-9.80
2022-12-01T20:55:17.626Z,-9.50
2022-12-01T20:57:46.364Z,-9.50
2022-12-01T21:00:16.613Z,-9.70
2022-12-01T21:05:12.794Z,-9.80
2022-12-01T21:10:08.609Z,-9.50
2022-12-01T21:12:53.541Z,-9.70
2022-12-01T21:15:28.124Z,-9.70
2022-12-01T21:18:10.117Z,-9.70
2022-12-01T21:20:43.076Z,-9.70
2022-12-01T21:23:14.692Z,-9.70
2022-12-01T21:25:43.394Z,-9.70
2022-12-01T21:28:19.828Z,-9.60
2022-12-01T21:30:48.868Z,-9.00
2022-12-01T21:33:31.389Z,-9.70
2022-12-01T21:40:59.870Z,-9.70
2022-12-01T21:46:03.300Z,-10.00
2022-12-01T21:48:36.656Z,-10.10
2022-12-01T21:51:16.768Z,-10.10
2022-12-01T21:56:28.495Z,-10.00
2022-12-01T21:59:02.895Z,-10.10
2022-12-01T22:01:32.451Z,-10.00
2022-12-01T22:04:02.953Z,-10.10
2022-12-01T22:06:39.005Z,-10.00
2022-12-01T22:09:26.154Z,-10.00
2022-12-01T22:11:58.633Z,-10.00
2022-12-01T22:14:34.813Z,-10.10
2022-12-01T22:17:21.678Z,-9.90
2022-12-01T22:19:57.635Z,-10.20
2022-12-01T22:22:27.359Z,-10.00
2022-12-01T22:25:01.208Z,-10.00
2022-12-01T22:27:35.516Z,-10.00
2022-12-01T22:30:22.570Z,-10.00
2022-12-01T22:32:57.237Z,-10.00
2022-12-01T22:35:45.547Z,-9.90
2022-12-01T22:38:35.004Z,-9.90
2022-12-01T22:41:19.476Z,-9.80
2022-12-01T22:43:50.913Z,-9.90
2022-12-01T22:46:35.628Z,-10.00
2022-12-01T22:49:23.923Z,-10.20
2022-12-01T22:51:59.393Z,-10.40
2022-12-01T22:54:43.775Z,-10.20
2022-12-01T22:57:31.650Z,-10.40
2022-12-01T23:02:34.085Z,-10.10
2022-12-01T23:05:22.627Z,-10.10
2022-12-01T23:07:51.243Z,-10.30
2022-12-01T23:10:22.592Z,-10.30
2022-12-01T23:12:52.445Z,-10.50
2022-12-01T23:15:27.517Z,-10.30
2022-12-01T23:20:29.143Z,-10.30
2022-12-01T23:22:58.802Z,-10.20
2022-12-01T23:25:27.781Z,-10.20
2022-12-01T23:28:00.644Z,-10.30
2022-12-01T23:30:28.574Z,-10.40
2022-12-01T23:33:15.434Z,-10.50
2022-12-01T23:36:07.078Z,-10.50
2022-12-01T23:38:39.673Z,-10.60
2022-12-01T23:41:12.815Z,-10.60
2022-12-01T23:43:42.849Z,-10.60
2022-12-01T23:46:16.306Z,-10.60
2022-12-01T23:48:51.303Z,-10.50
2022-12-01T23:51:24.031Z,-10.40
2022-12-01T23:53:53.613Z,-10.30
2022-12-01T23:56:24.172Z,-10.50
2022-12-01T23:58:53.023Z,-10.20
